createdAt,value
2023-03-28T00:01:08.922Z,9.20
2023-03-28T00:03:42.557Z,9.10
2023-03-28T00:06:18.829Z,8.96
2023-03-28T00:08:54.050Z,9.16
2023-03-28T00:11:27.108Z,9.09
2023-03-28T00:14:02.076Z,9.29
2023-03-28T00:16:37.159Z,9.18
2023-03-28T00:19:12.710Z,8.89
2023-03-28T00:21:47.347Z,9.22
2023-03-28T00:24:22.482Z,9.29
2023-03-28T00:26:55.639Z,9.18
2023-03-28T00:29:30.184Z,9.26
2023-03-28T00:32:03.949Z,9.18
2023-03-28T00:34:37.170Z,9.20
2023-03-28T00:37:10.751Z,9.11
2023-03-28T00:39:50.128Z,9.21
2023-03-28T00:42:24.387Z,9.12
2023-03-28T00:44:59.076Z,8.98
2023-03-28T00:47:37.865Z,8.96
2023-03-28T00:50:12.759Z,9.07
2023-03-28T00:52:49.792Z,9.00
2023-03-28T00:55:27.149Z,9.00
2023-03-28T00:58:01.184Z,9.22
2023-03-28T01:00:34.911Z,9.07
2023-03-28T01:03:08.267Z,8.89
2023-03-28T01:05:41.834Z,9.04
2023-03-28T01:08:18.654Z,8.94
2023-03-28T01:10:53.298Z,9.01
2023-03-28T01:13:28.970Z,8.92
2023-03-28T01:16:03.839Z,8.94
2023-03-28T01:18:41.599Z,8.87
2023-03-28T01:21:26.278Z,8.92
2023-03-28T01:24:21.161Z,8.89
2023-03-28T01:26:57.129Z,8.82
2023-03-28T01:29:43.915Z,8.74
2023-03-28T01:32:32.060Z,8.80
2023-03-28T01:35:15.856Z,8.91
2023-03-28T01:37:54.447Z,8.75
2023-03-28T01:40:34.097Z,8.80
2023-03-28T01:43:14.424Z,8.63
2023-03-28T01:45:52.474Z,8.65
2023-03-28T01:48:31.390Z,8.75
2023-03-28T01:51:10.164Z,8.67
2023-03-28T01:53:47.492Z,8.74
2023-03-28T01:56:24.450Z,8.75
2023-03-28T01:59:01.204Z,8.41
2023-03-28T02:01:36.943Z,8.43
2023-03-28T02:04:20.578Z,8.31
2023-03-28T02:06:55.193Z,8.23
2023-03-28T02:09:32.421Z,8.18
2023-03-28T02:12:09.714Z,8.21
2023-03-28T02:14:45.528Z,8.19
2023-03-28T02:17:20.268Z,8.12
2023-03-28T02:19:58.698Z,8.05
2023-03-28T02:22:33.995Z,7.94
2023-03-28T02:25:09.290Z,7.83
2023-03-28T02:27:44.102Z,7.74
2023-03-28T02:30:17.563Z,7.70
2023-03-28T02:32:51.623Z,7.70
2023-03-28T02:35:28.608Z,7.59
2023-03-28T02:38:05.986Z,7.42
2023-03-28T02:40:47.693Z,7.31
2023-03-28T02:43:29.557Z,7.21
2023-03-28T02:46:10.432Z,7.20
2023-03-28T02:48:56.288Z,7.04
2023-03-28T02:51:34.834Z,7.08
2023-03-28T02:54:18.382Z,7.08
2023-03-28T02:57:01.529Z,6.84
2023-03-28T02:59:38.187Z,6.96
2023-03-28T03:02:11.618Z,6.85
2023-03-28T03:04:44.665Z,6.79
2023-03-28T03:07:18.218Z,7.02
2023-03-28T03:09:53.726Z,6.94
2023-03-28T03:12:29.835Z,6.85
2023-03-28T03:15:04.244Z,6.73
2023-03-28T03:17:38.259Z,6.92
2023-03-28T03:20:11.919Z,6.82
2023-03-28T03:22:44.891Z,6.79
2023-03-28T03:25:18.323Z,6.68
2023-03-28T03:27:52.926Z,6.71
2023-03-28T03:30:25.983Z,6.54
2023-03-28T03:33:00.648Z,6.58
2023-03-28T03:35:33.797Z,6.56
2023-03-28T03:38:06.769Z,6.45
2023-03-28T03:40:40.287Z,6.38
2023-03-28T03:43:15.139Z,6.21
2023-03-28T03:45:48.212Z,6.23
2023-03-28T03:48:21.164Z,6.22
2023-03-28T03:50:54.507Z,6.10
2023-03-28T03:53:27.722Z,6.05
2023-03-28T03:56:01.793Z,5.96
2023-03-28T03:58:36.980Z,6.25
2023-03-28T04:01:13.993Z,6.03
2023-03-28T04:03:48.201Z,6.09
2023-03-28T04:06:21.316Z,5.82
2023-03-28T04:08:54.704Z,5.82
2023-03-28T04:11:27.933Z,5.81
2023-03-28T04:14:04.355Z,5.89
2023-03-28T04:16:40.274Z,5.94
2023-03-28T04:19:15.690Z,5.62
2023-03-28T04:21:49.779Z,5.93
2023-03-28T04:24:24.412Z,5.68
2023-03-28T04:26:57.761Z,5.47
2023-03-28T04:29:32.135Z,5.53
2023-03-28T04:32:06.709Z,5.55
2023-03-28T04:34:40.000Z,5.37
2023-03-28T04:37:13.383Z,5.32
2023-03-28T04:39:47.645Z,5.30
2023-03-28T04:42:20.972Z,5.22
2023-03-28T04:44:55.363Z,5.14
2023-03-28T04:47:28.664Z,5.42
2023-03-28T04:50:01.740Z,5.29
2023-03-28T04:52:35.676Z,5.34
2023-03-28T04:55:10.344Z,5.25
2023-03-28T04:57:43.594Z,5.37
2023-03-28T05:00:18.891Z,5.27
2023-03-28T05:02:55.180Z,5.20
2023-03-28T05:05:29.037Z,5.32
2023-03-28T05:08:02.773Z,5.33
2023-03-28T05:10:36.072Z,5.27
2023-03-28T05:13:10.462Z,5.20
2023-03-28T05:15:47.258Z,5.31
2023-03-28T05:18:20.660Z,5.25
2023-03-28T05:20:53.888Z,5.01
2023-03-28T05:23:27.375Z,5.06
2023-03-28T05:26:00.330Z,5.27
2023-03-28T05:28:33.219Z,5.17
2023-03-28T05:31:08.523Z,5.30
2023-03-28T05:33:41.904Z,5.26
2023-03-28T05:36:15.766Z,5.12
2023-03-28T05:38:48.866Z,5.20
2023-03-28T05:41:21.730Z,5.30
2023-03-28T05:44:05.095Z,5.25
2023-03-28T05:46:39.997Z,5.46
2023-03-28T05:49:13.176Z,5.55
2023-03-28T05:51:46.483Z,5.39
2023-03-28T05:54:19.694Z,5.43
2023-03-28T05:56:52.988Z,5.36
2023-03-28T05:59:26.090Z,5.44
2023-03-28T06:02:03.419Z,5.48
2023-03-28T06:04:36.408Z,5.49
2023-03-28T06:07:09.919Z,5.85
2023-03-28T06:09:42.993Z,5.76
2023-03-28T06:12:16.599Z,5.87
2023-03-28T06:14:49.670Z,5.77
2023-03-28T06:17:24.952Z,5.71
2023-03-28T06:19:57.953Z,6.04
2023-03-28T06:22:31.181Z,5.90
2023-03-28T06:25:06.765Z,5.87
2023-03-28T06:27:39.916Z,5.46
2023-03-28T06:30:13.891Z,5.61
2023-03-28T06:32:48.625Z,5.63
2023-03-28T06:35:21.952Z,5.79
2023-03-28T06:37:55.077Z,5.71
2023-03-28T06:40:28.341Z,5.91
2023-03-28T06:43:01.424Z,6.29
2023-03-28T06:45:34.572Z,6.15
2023-03-28T06:48:09.516Z,6.19
2023-03-28T06:50:42.567Z,6.23
2023-03-28T06:53:15.490Z,6.17
2023-03-28T06:55:50.730Z,6.33
2023-03-28T06:58:24.405Z,6.61
2023-03-28T07:00:59.731Z,6.40
2023-03-28T07:03:34.762Z,6.36
2023-03-28T07:06:08.682Z,6.25
2023-03-28T07:08:42.062Z,6.22
2023-03-28T07:11:15.156Z,6.71
2023-03-28T07:13:48.933Z,6.54
2023-03-28T07:16:22.659Z,6.69
2023-03-28T07:18:57.242Z,6.70
2023-03-28T07:21:30.530Z,6.75
2023-03-28T07:24:03.522Z,6.57
2023-03-28T07:26:36.616Z,6.56
2023-03-28T07:29:09.692Z,6.62
2023-03-28T07:31:43.060Z,6.56
2023-03-28T07:34:18.695Z,6.62
2023-03-28T07:36:51.989Z,6.53
2023-03-28T07:39:25.207Z,6.68
2023-03-28T07:41:58.443Z,6.93
2023-03-28T07:44:31.508Z,6.76
2023-03-28T07:47:05.999Z,6.72
2023-03-28T07:49:41.206Z,6.99
2023-03-28T07:52:14.524Z,6.92
2023-03-28T07:54:47.666Z,6.96
2023-03-28T07:57:21.052Z,6.76
2023-03-28T07:59:56.103Z,6.78
2023-03-28T08:02:29.490Z,6.90
2023-03-28T08:05:03.831Z,7.30
2023-03-28T08:07:37.512Z,7.18
2023-03-28T08:10:14.683Z,7.14
2023-03-28T08:12:49.240Z,7.04
2023-03-28T08:15:22.608Z,7.03
2023-03-28T08:17:55.770Z,7.22
2023-03-28T08:20:30.314Z,7.07
2023-03-28T08:23:04.094Z,6.99
2023-03-28T08:25:37.203Z,6.96
2023-03-28T08:28:11.383Z,7.08
2023-03-28T08:30:44.996Z,6.85
2023-03-28T08:33:18.233Z,6.81
2023-03-28T08:35:53.813Z,6.89
2023-03-28T08:38:27.299Z,6.97
2023-03-28T08:41:05.480Z,7.12
2023-03-28T08:43:54.475Z,7.26
2023-03-28T08:46:29.005Z,7.31
2023-03-28T08:49:05.476Z,7.28
2023-03-28T08:51:41.301Z,7.24
2023-03-28T08:54:16.051Z,7.27
2023-03-28T08:56:51.210Z,7.49
2023-03-28T08:59:26.912Z,7.69
2023-03-28T09:02:00.265Z,7.45
2023-03-28T09:04:36.112Z,7.89
2023-03-28T09:07:18.813Z,7.84
2023-03-28T09:09:55.496Z,7.97
2023-03-28T09:12:35.118Z,7.98
2023-03-28T09:15:16.278Z,8.07
2023-03-28T09:17:58.560Z,8.31
2023-03-28T09:20:35.075Z,8.07
2023-03-28T09:23:26.068Z,8.18
2023-03-28T09:26:02.328Z,8.27
2023-03-28T09:28:39.370Z,8.22
2023-03-28T09:31:14.255Z,7.89
2023-03-28T09:33:48.390Z,7.79
2023-03-28T09:36:25.960Z,7.91
2023-03-28T09:39:02.721Z,8.10
2023-03-28T09:41:41.230Z,8.07
2023-03-28T09:44:15.931Z,8.18
2023-03-28T09:46:49.687Z,8.14
2023-03-28T09:49:23.848Z,8.44
2023-03-28T09:51:57.856Z,8.36
2023-03-28T09:54:35.241Z,8.63
2023-03-28T09:57:08.268Z,8.48
2023-03-28T09:59:42.109Z,8.42
2023-03-28T10:02:28.979Z,8.34
2023-03-28T10:05:06.026Z,8.35
2023-03-28T10:07:43.654Z,8.71
2023-03-28T10:10:22.467Z,8.57
2023-03-28T10:12:57.741Z,8.54
2023-03-28T10:15:36.033Z,8.38
2023-03-28T10:18:16.389Z,8.41
2023-03-28T10:20:51.236Z,8.28
2023-03-28T10:23:25.174Z,8.60
2023-03-28T10:26:03.031Z,8.46
2023-03-28T10:28:37.199Z,8.50
2023-03-28T10:31:21.082Z,8.57
2023-03-28T10:33:54.366Z,8.65
2023-03-28T10:36:31.610Z,8.76
2023-03-28T10:39:21.214Z,8.80
2023-03-28T10:41:56.837Z,8.68
2023-03-28T10:44:30.615Z,8.54
2023-03-28T10:47:05.463Z,8.71
2023-03-28T10:49:41.956Z,8.81
2023-03-28T10:52:23.175Z,8.59
2023-03-28T10:55:04.672Z,8.66
2023-03-28T10:57:41.523Z,8.58
2023-03-28T11:00:17.653Z,8.78
2023-03-28T11:03:08.339Z,8.69
2023-03-28T11:05:54.908Z,8.61
2023-03-28T11:08:36.496Z,8.67
2023-03-28T11:11:16.400Z,8.87
2023-03-28T11:13:55.488Z,9.05
2023-03-28T11:16:35.447Z,9.07
2023-03-28T11:19:16.692Z,8.73
2023-03-28T11:21:53.478Z,8.79
2023-03-28T11:24:32.565Z,8.72
2023-03-28T11:27:16.057Z,8.99
2023-03-28T11:29:55.390Z,9.13
2023-03-28T11:32:30.858Z,9.04
2023-03-28T11:35:13.711Z,9.01
2023-03-28T11:37:51.848Z,8.96
2023-03-28T11:40:38.504Z,8.83
2023-03-28T11:43:14.061Z,8.83
2023-03-28T11:45:52.737Z,9.07
2023-03-28T11:48:27.544Z,8.84
2023-03-28T11:51:04.874Z,9.26
2023-03-28T11:53:43.094Z,8.90
2023-03-28T11:56:21.900Z,9.05
2023-03-28T11:58:57.242Z,9.21
2023-03-28T12:01:32.919Z,9.32
2023-03-28T12:04:11.011Z,8.83
2023-03-28T12:06:59.534Z,9.07
2023-03-28T12:09:37.380Z,8.82
2023-03-28T12:12:13.933Z,9.25
2023-03-28T12:14:50.961Z,9.21
2023-03-28T12:17:27.059Z,8.83
2023-03-28T12:20:00.165Z,9.08
2023-03-28T12:22:36.208Z,8.84
2023-03-28T12:25:13.718Z,9.04
2023-03-28T12:27:56.265Z,8.90
2023-03-28T12:30:33.443Z,8.96
2023-03-28T12:33:13.249Z,8.66
2023-03-28T12:35:49.518Z,8.66
2023-03-28T12:38:31.718Z,8.42
2023-03-28T12:41:05.843Z,8.48
2023-03-28T12:43:44.526Z,8.69
2023-03-28T12:46:19.547Z,8.78
2023-03-28T12:48:55.568Z,8.93
2023-03-28T12:51:31.249Z,8.69
2023-03-28T12:54:08.963Z,8.44
2023-03-28T12:56:42.212Z,8.56
2023-03-28T12:59:36.483Z,8.33
2023-03-28T13:02:13.017Z,8.33
2023-03-28T13:04:50.583Z,8.13
2023-03-28T13:07:28.277Z,8.00
2023-03-28T13:10:04.745Z,7.78
2023-03-28T13:12:52.897Z,8.01
2023-03-28T13:15:29.849Z,8.15
2023-03-28T13:18:21.818Z,8.10
2023-03-28T13:20:55.074Z,8.23
2023-03-28T13:23:30.400Z,8.31
2023-03-28T13:26:04.696Z,8.58
2023-03-28T13:28:43.960Z,8.48
2023-03-28T13:31:23.073Z,8.34
2023-03-28T13:33:58.773Z,8.33
2023-03-28T13:36:33.131Z,8.36
2023-03-28T13:39:22.863Z,8.32
2023-03-28T13:42:00.069Z,8.11
2023-03-28T13:44:40.360Z,8.14
2023-03-28T13:47:18.962Z,8.07
2023-03-28T13:49:54.196Z,8.29
2023-03-28T13:52:27.198Z,8.23
2023-03-28T13:55:03.909Z,8.38
2023-03-28T13:57:37.717Z,8.13
2023-03-28T14:00:16.367Z,8.21
2023-03-28T14:02:51.904Z,8.19
2023-03-28T14:05:25.932Z,8.18
2023-03-28T14:08:03.830Z,8.33
2023-03-28T14:10:38.268Z,8.02
2023-03-28T14:13:14.902Z,7.90
2023-03-28T14:15:48.013Z,8.02
2023-03-28T14:18:28.658Z,8.00
2023-03-28T14:21:02.343Z,8.06
2023-03-28T14:23:37.175Z,8.00
2023-03-28T14:26:16.498Z,7.66
2023-03-28T14:28:51.592Z,7.54
2023-03-28T14:31:32.668Z,7.64
2023-03-28T14:34:16.548Z,7.63
2023-03-28T14:36:59.084Z,7.69
2023-03-28T14:39:33.200Z,7.70
2023-03-28T14:42:08.446Z,7.70
2023-03-28T14:44:42.865Z,7.83
2023-03-28T14:47:17.907Z,7.91
2023-03-28T14:49:55.814Z,7.53
2023-03-28T14:52:30.757Z,7.70
2023-03-28T14:55:04.794Z,7.60
2023-03-28T14:57:38.306Z,7.70
2023-03-28T15:00:15.213Z,7.67
2023-03-28T15:02:50.471Z,7.79
2023-03-28T15:05:25.282Z,7.47
2023-03-28T15:08:00.897Z,7.54
2023-03-28T15:10:34.598Z,7.41
2023-03-28T15:13:13.471Z,7.52
2023-03-28T15:15:48.554Z,7.40
2023-03-28T15:18:28.554Z,7.45
2023-03-28T15:21:04.517Z,7.35
2023-03-28T15:23:40.972Z,7.31
2023-03-28T15:26:17.131Z,7.38
2023-03-28T15:28:52.756Z,7.56
2023-03-28T15:31:26.215Z,7.40
2023-03-28T15:33:59.558Z,7.28
2023-03-28T15:36:34.886Z,7.21
2023-03-28T15:39:18.214Z,7.15
2023-03-28T15:41:54.854Z,7.42
2023-03-28T15:44:29.360Z,6.80
2023-03-28T15:47:04.398Z,7.44
2023-03-28T15:49:38.204Z,7.26
2023-03-28T15:52:18.657Z,7.29
2023-03-28T15:54:53.274Z,7.36
2023-03-28T15:57:29.538Z,7.38
2023-03-28T16:00:02.516Z,7.38
2023-03-28T16:02:37.343Z,7.37
2023-03-28T16:05:27.037Z,7.24
2023-03-28T16:08:02.513Z,7.42
2023-03-28T16:10:35.900Z,7.38
2023-03-28T16:13:15.016Z,7.35
2023-03-28T16:15:51.085Z,7.44
2023-03-28T16:18:24.304Z,7.12
2023-03-28T16:20:57.146Z,7.23
2023-03-28T16:23:31.645Z,7.30
2023-03-28T16:26:04.782Z,7.07
2023-03-28T16:28:37.820Z,6.93
2023-03-28T16:31:14.128Z,7.17
2023-03-28T16:33:47.282Z,7.22
2023-03-28T16:36:20.310Z,6.99
2023-03-28T16:38:54.736Z,7.20
2023-03-28T16:41:27.866Z,6.99
2023-03-28T16:44:01.107Z,7.14
2023-03-28T16:46:34.444Z,6.99
2023-03-28T16:49:07.456Z,7.06
2023-03-28T16:51:40.661Z,6.88
2023-03-28T16:54:15.063Z,6.89
2023-03-28T16:56:48.544Z,6.95
2023-03-28T16:59:22.054Z,7.13
2023-03-28T17:01:56.047Z,6.96
2023-03-28T17:04:30.042Z,6.94
2023-03-28T17:07:03.138Z,6.94
2023-03-28T17:09:38.154Z,6.81
2023-03-28T17:12:11.785Z,6.97
2023-03-28T17:14:46.008Z,6.80
2023-03-28T17:17:19.695Z,6.69
2023-03-28T17:19:53.019Z,6.85
2023-03-28T17:22:27.312Z,6.89
2023-03-28T17:25:02.323Z,6.89
2023-03-28T17:27:35.520Z,6.91
2023-03-28T17:30:09.679Z,6.62
2023-03-28T17:32:43.680Z,6.61
2023-03-28T17:35:17.299Z,6.69
2023-03-28T17:37:52.701Z,6.41
2023-03-28T17:40:27.296Z,6.54
2023-03-28T17:43:00.266Z,6.50
2023-03-28T17:45:33.596Z,6.66
2023-03-28T17:48:06.928Z,6.62
2023-03-28T17:50:40.248Z,6.51
2023-03-28T17:53:13.440Z,6.57
2023-03-28T17:55:48.396Z,6.34
2023-03-28T17:58:21.378Z,6.16
2023-03-28T18:00:54.814Z,6.44
2023-03-28T18:03:28.156Z,6.41
2023-03-28T18:06:02.060Z,6.18
2023-03-28T18:08:35.634Z,6.37
2023-03-28T18:11:12.021Z,6.25
2023-03-28T18:13:45.370Z,6.34
2023-03-28T18:16:19.232Z,6.41
2023-03-28T18:18:54.243Z,6.44
2023-03-28T18:21:27.749Z,6.53
2023-03-28T18:24:00.920Z,6.46
2023-03-28T18:26:35.272Z,6.45
2023-03-28T18:29:08.878Z,6.93
2023-03-28T18:31:43.311Z,6.55
2023-03-28T18:34:16.502Z,6.56
2023-03-28T18:36:49.441Z,6.50
2023-03-28T18:39:23.258Z,6.47
2023-03-28T18:41:57.659Z,6.47
2023-03-28T18:44:33.399Z,6.24
2023-03-28T18:47:06.913Z,6.32
2023-03-28T18:49:41.056Z,6.47
2023-03-28T18:52:14.208Z,6.16
2023-03-28T18:54:50.719Z,6.49
2023-03-28T18:57:26.820Z,6.33
2023-03-28T19:00:00.051Z,6.21
2023-03-28T19:02:33.323Z,6.30
2023-03-28T19:05:07.124Z,6.33
2023-03-28T19:07:40.380Z,6.22
2023-03-28T19:10:14.157Z,6.11
2023-03-28T19:12:51.000Z,6.13
2023-03-28T19:15:25.923Z,6.15
2023-03-28T19:18:02.276Z,5.97
2023-03-28T19:20:36.864Z,5.99
2023-03-28T19:23:09.867Z,6.25
2023-03-28T19:25:43.595Z,6.12
2023-03-28T19:28:18.818Z,6.15
2023-03-28T19:30:57.366Z,6.16
2023-03-28T19:33:30.987Z,5.93
2023-03-28T19:36:05.777Z,5.94
2023-03-28T19:38:40.155Z,5.82
2023-03-28T19:41:17.146Z,5.91
2023-03-28T19:43:51.635Z,6.22
2023-03-28T19:46:33.697Z,5.96
2023-03-28T19:49:08.131Z,6.08
2023-03-28T19:51:41.424Z,6.06
2023-03-28T19:54:15.343Z,5.95
2023-03-28T19:56:48.838Z,6.08
2023-03-28T19:59:23.493Z,5.88
2023-03-28T20:01:56.736Z,6.00
2023-03-28T20:04:30.773Z,5.98
2023-03-28T20:07:04.093Z,5.82
2023-03-28T20:09:37.194Z,5.94
2023-03-28T20:12:11.150Z,5.70
2023-03-28T20:14:46.763Z,5.43
2023-03-28T20:17:20.696Z,5.70
2023-03-28T20:19:53.999Z,5.02
2023-03-28T20:22:29.746Z,5.53
2023-03-28T20:25:02.979Z,5.54
2023-03-28T20:27:37.252Z,5.43
2023-03-28T20:30:13.927Z,5.51
2023-03-28T20:32:49.625Z,5.43
2023-03-28T20:35:22.929Z,5.31
2023-03-28T20:37:56.102Z,5.45
2023-03-28T20:40:29.274Z,5.34
2023-03-28T20:43:03.006Z,5.51
2023-03-28T20:45:39.746Z,5.38
2023-03-28T20:48:16.403Z,5.16
2023-03-28T20:50:49.455Z,5.06
2023-03-28T20:53:22.687Z,5.03
2023-03-28T20:56:00.431Z,5.34
2023-03-28T20:58:34.228Z,5.17
2023-03-28T21:01:10.652Z,5.41
2023-03-28T21:03:53.781Z,5.01
2023-03-28T21:06:29.761Z,5.06
2023-03-28T21:09:04.654Z,5.31
2023-03-28T21:11:38.424Z,5.09
2023-03-28T21:14:13.220Z,5.34
2023-03-28T21:16:50.012Z,5.23
2023-03-28T21:19:23.256Z,5.06
2023-03-28T21:21:57.127Z,5.20
2023-03-28T21:24:30.235Z,5.02
2023-03-28T21:27:03.408Z,5.12
2023-03-28T21:29:36.426Z,4.91
2023-03-28T21:32:11.356Z,4.84
2023-03-28T21:34:44.880Z,4.87
2023-03-28T21:37:18.145Z,5.11
2023-03-28T21:39:51.553Z,4.86
2023-03-28T21:42:24.872Z,4.68
2023-03-28T21:44:58.151Z,4.94
2023-03-28T21:47:32.589Z,4.79
2023-03-28T21:50:06.081Z,4.68
2023-03-28T21:52:39.293Z,4.81
2023-03-28T21:55:12.344Z,4.65
2023-03-28T21:57:45.386Z,5.00
2023-03-28T22:00:18.637Z,4.67
2023-03-28T22:02:54.346Z,4.23
2023-03-28T22:05:29.686Z,4.52
2023-03-28T22:08:04.622Z,4.64
2023-03-28T22:10:37.916Z,4.43
2023-03-28T22:13:12.148Z,4.67
2023-03-28T22:15:45.870Z,4.44
2023-03-28T22:18:21.088Z,4.31
2023-03-28T22:20:54.338Z,4.57
2023-03-28T22:23:27.414Z,4.33
2023-03-28T22:26:00.703Z,4.30
2023-03-28T22:28:33.772Z,4.23
2023-03-28T22:31:07.232Z,4.30
2023-03-28T22:33:41.989Z,4.34
2023-03-28T22:36:15.628Z,4.25
2023-03-28T22:38:48.701Z,4.09
2023-03-28T22:41:21.769Z,4.17
2023-03-28T22:43:54.701Z,3.99
2023-03-28T22:46:27.750Z,3.98
2023-03-28T22:49:04.618Z,4.03
2023-03-28T22:51:43.937Z,4.10
2023-03-28T22:54:21.049Z,3.87
2023-03-28T22:56:54.057Z,4.03
2023-03-28T22:59:28.087Z,3.93
2023-03-28T23:02:01.410Z,3.69
2023-03-28T23:04:36.189Z,3.84
2023-03-28T23:07:09.141Z,3.91
2023-03-28T23:09:43.148Z,3.77
2023-03-28T23:12:16.684Z,3.91
2023-03-28T23:14:50.341Z,3.58
2023-03-28T23:17:25.077Z,3.56
2023-03-28T23:20:00.527Z,3.63
2023-03-28T23:22:33.563Z,3.57
2023-03-28T23:25:06.957Z,3.90
2023-03-28T23:27:40.574Z,3.53
2023-03-28T23:30:14.666Z,3.59
2023-03-28T23:32:47.977Z,3.54
2023-03-28T23:35:22.518Z,3.52
2023-03-28T23:37:55.454Z,3.69
2023-03-28T23:40:29.150Z,3.73
2023-03-28T23:43:02.459Z,3.78
2023-03-28T23:45:35.687Z,3.70
2023-03-28T23:48:09.321Z,3.74
2023-03-28T23:50:43.823Z,3.53
2023-03-28T23:53:16.750Z,3.26
2023-03-28T23:55:49.649Z,3.75
2023-03-28T23:58:22.732Z,3.42
